Hartford, Connecticut
Current Conditions -  °F | °C
As of 8:53 PM on Wednesday 26 Nov 2014 (Local Time) from KHFD Reporting Station
Moderate Rain Moderate Rain  
Wind Chill: 24°   Ceiling: 800
Heat Index: 34°   Visibility: 2mi
Dew Point: 31°   Wind: 15mph
Humidity: 89%   Direction: 350°N
Pressure: 29.75"   Gusts: 24mph
Location:  41.76°N, 72.67°W
Report Text: KHFD 270153Z 35013G21KT 2SM RA BR BKN008 OVC015 01/M01 A2975 RMK AO2 RAB49SNE52 SLP073 P0004 T00111006
Loading
Personal Weather Stations






























Interactive Weather Map New forecast layout! Learn more

10-Day Weather Forecast

Advertisements
Track Severe Weather on mobile